createdAt,value
2022-10-05T00:01:24.356Z,43.94
2022-10-05T00:03:52.151Z,43.91
2022-10-05T00:06:18.893Z,43.96
2022-10-05T00:08:45.489Z,43.99
2022-10-05T00:11:13.539Z,43.97
2022-10-05T00:13:40.124Z,43.97
2022-10-05T00:16:17.542Z,44.01
2022-10-05T00:18:53.304Z,43.97
2022-10-05T00:21:25.353Z,43.98
2022-10-05T00:23:52.183Z,43.99
2022-10-05T00:26:25.499Z,43.98
2022-10-05T00:28:52.819Z,43.96
2022-10-05T00:31:21.473Z,43.99
2022-10-05T00:33:50.328Z,44.00
2022-10-05T00:36:16.911Z,43.97
2022-10-05T00:38:43.627Z,43.96
2022-10-05T00:41:23.467Z,43.96
2022-10-05T00:44:11.464Z,43.93
2022-10-05T00:46:50.286Z,43.97
2022-10-05T00:49:22.977Z,43.98
2022-10-05T00:52:20.263Z,43.82
2022-10-05T00:54:51.864Z,43.89
2022-10-05T00:57:42.123Z,43.83
2022-10-05T01:00:09.182Z,43.80
2022-10-05T01:02:47.912Z,43.80
2022-10-05T01:05:23.491Z,43.77
2022-10-05T01:07:59.236Z,43.81
2022-10-05T01:10:27.830Z,43.75
2022-10-05T01:13:18.649Z,43.75
2022-10-05T01:15:51.902Z,43.71
2022-10-05T01:18:24.702Z,43.61
2022-10-05T01:20:57.468Z,43.67
2022-10-05T01:23:47.272Z,43.76
2022-10-05T01:26:20.058Z,43.70
2022-10-05T01:29:01.933Z,43.57
2022-10-05T01:31:49.935Z,43.49
2022-10-05T01:34:38.318Z,43.60
2022-10-05T01:37:23.477Z,43.55
2022-10-05T01:40:00.658Z,43.60
2022-10-05T01:42:42.276Z,43.65
2022-10-05T01:45:15.771Z,43.43
2022-10-05T01:47:48.509Z,43.41
2022-10-05T01:50:30.916Z,43.38
2022-10-05T01:53:35.610Z,43.29
2022-10-05T01:56:41.836Z,43.31
2022-10-05T01:59:16.227Z,43.27
2022-10-05T02:02:14.271Z,43.32
2022-10-05T02:05:03.215Z,43.41
2022-10-05T02:07:59.895Z,43.30
2022-10-05T02:10:29.186Z,43.26
2022-10-05T02:12:58.884Z,43.41
2022-10-05T02:15:27.541Z,43.38
2022-10-05T02:17:57.770Z,43.30
2022-10-05T02:20:26.070Z,43.27
2022-10-05T02:22:58.668Z,43.32
2022-10-05T02:25:28.774Z,43.22
2022-10-05T02:28:01.387Z,43.22
2022-10-05T02:30:28.821Z,43.21
2022-10-05T02:33:27.530Z,43.27
2022-10-05T02:35:54.120Z,43.19
2022-10-05T02:38:29.638Z,43.16
2022-10-05T02:41:05.350Z,43.18
2022-10-05T02:43:50.163Z,43.17
2022-10-05T02:46:25.740Z,43.14
2022-10-05T02:49:09.419Z,43.33
2022-10-05T02:51:48.023Z,43.36
2022-10-05T02:54:29.905Z,43.16
2022-10-05T02:57:25.518Z,43.09
2022-10-05T03:00:14.118Z,43.10
2022-10-05T03:03:06.428Z,43.15
2022-10-05T03:05:43.973Z,43.11
2022-10-05T03:08:28.741Z,43.14
2022-10-05T03:11:26.646Z,43.10
2022-10-05T03:14:08.648Z,43.08
2022-10-05T03:17:03.587Z,43.05
2022-10-05T03:19:51.078Z,43.00
2022-10-05T03:22:46.838Z,43.09
2022-10-05T03:25:23.749Z,43.04
2022-10-05T03:28:02.498Z,43.07
2022-10-05T03:30:36.815Z,42.99
2022-10-05T03:33:25.120Z,42.98
2022-10-05T03:36:32.845Z,42.97
2022-10-05T03:39:03.768Z,42.98
2022-10-05T03:41:36.841Z,43.17
2022-10-05T03:44:21.566Z,43.61
2022-10-05T03:47:09.865Z,43.70
2022-10-05T03:49:58.171Z,43.25
2022-10-05T03:52:28.516Z,43.26
2022-10-05T03:55:37.247Z,43.01
2022-10-05T03:58:07.903Z,42.70
2022-10-05T04:00:34.471Z,42.02
2022-10-05T04:03:22.175Z,41.13
2022-10-05T04:05:56.506Z,40.83
2022-10-05T04:08:46.835Z,40.41
2022-10-05T04:11:17.392Z,40.16
2022-10-05T04:13:48.670Z,40.03
2022-10-05T04:16:23.683Z,39.88
2022-10-05T04:19:15.944Z,39.77
2022-10-05T04:21:52.428Z,39.67
2022-10-05T04:24:27.665Z,39.56
2022-10-05T04:26:59.267Z,39.50
2022-10-05T04:29:44.971Z,39.29
2022-10-05T04:32:37.368Z,39.33
2022-10-05T04:35:31.079Z,39.24
2022-10-05T04:38:35.448Z,39.15
2022-10-05T04:41:23.628Z,39.14
2022-10-05T04:44:24.246Z,39.06
2022-10-05T04:47:03.459Z,39.01
2022-10-05T04:49:54.495Z,38.90
2022-10-05T04:52:22.515Z,38.91
2022-10-05T04:54:48.927Z,38.63
2022-10-05T04:57:23.731Z,38.72
2022-10-05T05:00:14.844Z,38.71
2022-10-05T05:03:09.446Z,38.77
2022-10-05T05:05:53.114Z,38.67
2022-10-05T05:08:25.425Z,38.65
2022-10-05T05:11:29.922Z,38.58
2022-10-05T05:14:15.439Z,38.49
2022-10-05T05:16:43.162Z,38.46
2022-10-05T05:19:35.588Z,38.36
2022-10-05T05:22:18.156Z,38.42
2022-10-05T05:24:56.803Z,38.41
2022-10-05T05:27:33.360Z,38.36
2022-10-05T05:30:37.931Z,38.38
2022-10-05T05:33:10.593Z,38.33
2022-10-05T05:36:03.892Z,38.31
2022-10-05T05:38:35.549Z,38.34
2022-10-05T05:41:39.422Z,38.41
2022-10-05T05:44:37.820Z,38.25
2022-10-05T05:47:11.289Z,38.39
2022-10-05T05:49:41.897Z,38.45
2022-10-05T05:52:16.327Z,38.45
2022-10-05T05:54:46.895Z,38.44
2022-10-05T05:57:16.595Z,38.38
2022-10-05T06:00:00.519Z,38.18
2022-10-05T06:02:31.968Z,38.20
2022-10-05T06:05:29.165Z,38.19
2022-10-05T06:07:56.204Z,38.14
2022-10-05T06:10:41.589Z,37.79
2022-10-05T06:13:14.747Z,37.68
2022-10-05T06:15:47.529Z,37.49
2022-10-05T06:18:16.138Z,37.45
2022-10-05T06:20:55.609Z,37.38
2022-10-05T06:23:27.322Z,37.37
2022-10-05T06:26:23.264Z,37.35
2022-10-05T06:29:15.084Z,37.29
2022-10-05T06:32:06.162Z,37.15
2022-10-05T06:34:38.462Z,37.11
2022-10-05T06:37:07.524Z,37.12
2022-10-05T06:39:40.216Z,37.61
2022-10-05T06:42:20.957Z,37.80
2022-10-05T06:44:57.721Z,37.75
2022-10-05T06:48:04.924Z,37.67
2022-10-05T06:50:38.729Z,37.98
2022-10-05T06:53:09.131Z,38.39
2022-10-05T06:56:04.319Z,38.43
2022-10-05T06:58:30.783Z,38.43
2022-10-05T07:01:03.246Z,38.54
2022-10-05T07:03:29.777Z,38.52
2022-10-05T07:06:05.491Z,38.58
2022-10-05T07:08:38.096Z,38.68
2022-10-05T07:11:13.275Z,38.64
2022-10-05T07:13:56.491Z,38.88
2022-10-05T07:16:48.178Z,38.81
2022-10-05T07:19:52.593Z,38.93
2022-10-05T07:22:24.649Z,39.34
2022-10-05T07:25:02.480Z,39.84
2022-10-05T07:27:34.306Z,39.95
2022-10-05T07:30:11.515Z,40.09
2022-10-05T07:33:00.129Z,40.25
2022-10-05T07:36:05.722Z,40.25
2022-10-05T07:38:43.523Z,40.39
2022-10-05T07:41:37.596Z,40.13
2022-10-05T07:44:13.255Z,39.88
2022-10-05T07:46:40.115Z,39.71
2022-10-05T07:49:32.927Z,39.50
2022-10-05T07:52:05.686Z,39.44
2022-10-05T07:54:47.235Z,39.23
2022-10-05T07:57:40.267Z,39.05
2022-10-05T08:00:12.085Z,38.94
2022-10-05T08:02:58.516Z,38.55
2022-10-05T08:05:38.995Z,38.29
2022-10-05T08:08:24.093Z,38.05
2022-10-05T08:11:01.975Z,38.12
2022-10-05T08:13:47.271Z,37.99
2022-10-05T08:16:14.698Z,38.48
2022-10-05T08:18:59.886Z,38.37
2022-10-05T08:21:37.214Z,38.45
2022-10-05T08:24:42.269Z,38.39
2022-10-05T08:27:29.063Z,38.89
2022-10-05T08:29:59.036Z,38.58
2022-10-05T08:32:43.882Z,38.44
2022-10-05T08:35:36.163Z,38.51
2022-10-05T08:38:03.676Z,38.32
2022-10-05T08:40:39.662Z,38.69
2022-10-05T08:43:12.300Z,38.46
2022-10-05T08:46:03.665Z,38.30
2022-10-05T08:48:30.128Z,38.04
2022-10-05T08:51:05.666Z,37.94
2022-10-05T08:53:43.869Z,37.74
2022-10-05T08:56:28.782Z,37.86
2022-10-05T08:59:14.333Z,37.64
2022-10-05T09:01:50.635Z,38.68
2022-10-05T09:04:24.009Z,38.82
2022-10-05T09:07:05.543Z,39.14
2022-10-05T09:09:38.350Z,39.15
2022-10-05T09:12:42.327Z,39.23
2022-10-05T09:15:30.073Z,39.06
2022-10-05T09:18:15.430Z,39.08
2022-10-05T09:20:55.751Z,38.96
2022-10-05T09:23:42.944Z,39.01
2022-10-05T09:26:41.735Z,38.95
2022-10-05T09:29:31.907Z,39.13
2022-10-05T09:32:20.482Z,39.21
2022-10-05T09:35:24.007Z,39.24
2022-10-05T09:38:09.616Z,39.60
2022-10-05T09:40:36.053Z,36.49
2022-10-05T09:43:59.047Z,36.52
2022-10-05T09:47:10.518Z,35.98
2022-10-05T09:49:57.059Z,36.54
2022-10-05T09:53:01.499Z,36.59
2022-10-05T09:55:35.069Z,36.57
2022-10-05T09:58:12.088Z,38.01
2022-10-05T10:01:15.411Z,39.25
2022-10-05T10:03:57.732Z,39.69
2022-10-05T10:06:42.411Z,39.80
2022-10-05T10:09:21.322Z,39.97
2022-10-05T10:11:58.559Z,39.99
2022-10-05T10:15:03.123Z,40.38
2022-10-05T10:17:47.486Z,40.24
2022-10-05T10:20:52.659Z,40.27
2022-10-05T10:23:42.373Z,40.12
2022-10-05T10:26:27.795Z,40.25
2022-10-05T10:29:15.854Z,40.37
2022-10-05T10:32:17.751Z,39.36
2022-10-05T10:34:57.311Z,38.46
2022-10-05T10:37:42.400Z,37.97
2022-10-05T10:40:29.647Z,37.95
2022-10-05T10:43:01.311Z,37.90
2022-10-05T10:45:45.771Z,38.00
2022-10-05T10:48:21.503Z,37.71
2022-10-05T10:50:54.176Z,38.18
2022-10-05T10:53:45.395Z,38.13
2022-10-05T10:56:20.897Z,38.03
2022-10-05T10:59:27.871Z,37.81
2022-10-05T11:02:22.332Z,38.11
2022-10-05T11:04:57.420Z,38.59
2022-10-05T11:07:32.704Z,38.51
2022-10-05T11:10:29.250Z,38.86
2022-10-05T11:13:24.655Z,39.11
2022-10-05T11:16:45.936Z,39.56
2022-10-05T11:19:46.303Z,39.43
2022-10-05T11:22:41.683Z,39.69
2022-10-05T11:25:37.829Z,39.84
2022-10-05T11:28:30.852Z,39.62
2022-10-05T11:31:16.207Z,39.75
2022-10-05T11:33:58.026Z,39.99
2022-10-05T11:37:00.046Z,39.80
2022-10-05T11:39:30.508Z,39.77
2022-10-05T11:42:00.037Z,39.90
2022-10-05T11:44:51.809Z,40.12
2022-10-05T11:47:40.443Z,40.13
2022-10-05T11:50:32.483Z,40.12
2022-10-05T11:53:11.552Z,40.20
2022-10-05T11:55:59.836Z,40.35
2022-10-05T11:58:28.896Z,40.45
2022-10-05T12:01:06.835Z,40.49
2022-10-05T12:03:50.870Z,40.59
2022-10-05T12:06:40.722Z,40.81
2022-10-05T12:09:27.794Z,40.83
2022-10-05T12:11:58.438Z,41.04
2022-10-05T12:14:28.434Z,41.02
2022-10-05T12:17:13.437Z,41.07
2022-10-05T12:19:45.782Z,41.26
2022-10-05T12:22:19.164Z,41.26
2022-10-05T12:25:03.181Z,41.34
2022-10-05T12:27:42.137Z,41.30
2022-10-05T12:30:24.272Z,41.51
2022-10-05T12:33:02.538Z,42.00
2022-10-05T12:35:49.335Z,42.14
2022-10-05T12:38:16.080Z,42.09
2022-10-05T12:40:46.230Z,42.29
2022-10-05T12:43:53.632Z,42.51
2022-10-05T12:46:44.808Z,42.44
2022-10-05T12:49:49.040Z,42.42
2022-10-05T12:52:40.723Z,42.49
2022-10-05T12:55:30.403Z,42.50
2022-10-05T12:58:36.440Z,42.62
2022-10-05T13:01:30.164Z,42.00
2022-10-05T13:04:04.376Z,40.88
2022-10-05T13:07:11.652Z,40.78
2022-10-05T13:09:59.984Z,40.65
2022-10-05T13:12:38.679Z,40.60
2022-10-05T13:15:05.639Z,40.59
2022-10-05T13:17:42.144Z,39.99
2022-10-05T13:20:35.430Z,39.93
2022-10-05T13:23:36.082Z,39.75
2022-10-05T13:26:12.351Z,39.89
2022-10-05T13:28:56.907Z,39.74
2022-10-05T13:31:26.480Z,39.57
2022-10-05T13:34:22.816Z,39.26
2022-10-05T13:36:56.262Z,39.63
2022-10-05T13:39:53.535Z,39.19
2022-10-05T13:42:41.720Z,39.50
2022-10-05T13:45:20.130Z,39.68
2022-10-05T13:47:52.104Z,39.64
2022-10-05T13:50:42.636Z,39.64
2022-10-05T13:53:25.798Z,39.69
2022-10-05T13:56:00.055Z,39.66
2022-10-05T13:58:27.126Z,39.55
2022-10-05T14:00:55.249Z,39.42
2022-10-05T14:03:34.941Z,39.63
2022-10-05T14:06:04.995Z,39.63
2022-10-05T14:08:35.843Z,39.54
2022-10-05T14:11:21.101Z,39.59
2022-10-05T14:13:48.374Z,39.50
2022-10-05T14:16:20.416Z,39.40
2022-10-05T14:18:51.870Z,39.75
2022-10-05T14:21:23.529Z,39.99
2022-10-05T14:23:51.165Z,40.73
2022-10-05T14:26:19.924Z,41.20
2022-10-05T14:29:01.032Z,41.50
2022-10-05T14:31:35.685Z,41.50
2022-10-05T14:34:35.027Z,41.22
2022-10-05T14:37:10.102Z,41.23
2022-10-05T14:39:43.359Z,41.16
2022-10-05T14:42:20.602Z,41.18
2022-10-05T14:45:12.928Z,41.12
2022-10-05T14:47:50.565Z,41.16
2022-10-05T14:50:19.371Z,41.23
2022-10-05T14:52:59.814Z,41.30
2022-10-05T14:56:02.467Z,41.22
2022-10-05T14:58:53.540Z,41.22
2022-10-05T15:01:31.154Z,41.15
2022-10-05T15:04:16.318Z,41.12
2022-10-05T15:06:47.780Z,41.09
2022-10-05T15:09:31.349Z,40.89
2022-10-05T15:11:58.752Z,40.87
2022-10-05T15:14:29.587Z,40.81
2022-10-05T15:17:19.696Z,40.75
2022-10-05T15:20:06.182Z,40.66
2022-10-05T15:22:35.764Z,40.66
2022-10-05T15:25:15.323Z,40.65
2022-10-05T15:27:56.624Z,40.53
2022-10-05T15:30:24.542Z,40.57
2022-10-05T15:33:05.221Z,40.53
2022-10-05T15:35:43.687Z,40.59
2022-10-05T15:38:26.997Z,40.58
2022-10-05T15:41:18.416Z,40.60
2022-10-05T15:43:51.112Z,40.46
2022-10-05T15:46:43.569Z,40.45
2022-10-05T15:49:33.760Z,40.50
2022-10-05T15:52:06.173Z,40.45
2022-10-05T15:54:52.599Z,40.36
2022-10-05T15:57:35.428Z,40.42
2022-10-05T16:00:30.194Z,40.42
2022-10-05T16:03:18.545Z,40.47
2022-10-05T16:06:09.312Z,40.42
2022-10-05T16:08:56.015Z,40.37
2022-10-05T16:11:36.174Z,40.39
2022-10-05T16:14:18.207Z,40.38
2022-10-05T16:17:06.605Z,40.42
2022-10-05T16:19:51.571Z,40.43
2022-10-05T16:22:24.242Z,40.52
2022-10-05T16:25:08.921Z,40.40
2022-10-05T16:28:05.330Z,40.48
2022-10-05T16:31:13.169Z,40.51
2022-10-05T16:34:02.907Z,40.43
2022-10-05T16:36:47.858Z,40.42
2022-10-05T16:39:49.124Z,40.43
2022-10-05T16:42:18.444Z,40.40
2022-10-05T16:45:22.899Z,40.45
2022-10-05T16:47:58.645Z,40.41
2022-10-05T16:50:30.207Z,40.46
2022-10-05T16:53:12.551Z,40.45
2022-10-05T16:55:42.207Z,40.47
2022-10-05T16:58:24.029Z,40.41
2022-10-05T17:01:07.067Z,40.46
2022-10-05T17:03:36.411Z,40.45
2022-10-05T17:06:17.146Z,40.38
2022-10-05T17:08:52.963Z,40.37
2022-10-05T17:11:23.780Z,40.44
2022-10-05T17:14:16.555Z,40.47
2022-10-05T17:17:17.360Z,40.47
2022-10-05T17:20:15.703Z,40.41
2022-10-05T17:22:52.370Z,40.44
2022-10-05T17:25:19.171Z,40.33
2022-10-05T17:27:55.590Z,40.39
2022-10-05T17:30:53.846Z,40.35
2022-10-05T17:33:30.538Z,40.43
2022-10-05T17:36:03.240Z,40.40
2022-10-05T17:38:35.378Z,40.34
2022-10-05T17:41:14.004Z,40.31
2022-10-05T17:43:40.997Z,40.40
2022-10-05T17:46:09.120Z,40.36
2022-10-05T17:48:54.281Z,40.35
2022-10-05T17:51:48.647Z,40.43
2022-10-05T17:54:44.391Z,40.39
2022-10-05T17:57:12.929Z,40.46
2022-10-05T17:59:59.665Z,40.45
2022-10-05T18:02:36.258Z,40.51
2022-10-05T18:05:04.113Z,40.49
2022-10-05T18:07:31.740Z,40.41
2022-10-05T18:09:59.457Z,40.45
2022-10-05T18:12:37.716Z,40.55
2022-10-05T18:15:14.293Z,40.60
2022-10-05T18:17:56.096Z,40.60
2022-10-05T18:20:34.923Z,40.75
2022-10-05T18:23:06.209Z,40.74
2022-10-05T18:25:48.456Z,40.70
2022-10-05T18:28:27.271Z,40.79
2022-10-05T18:31:17.528Z,40.84
2022-10-05T18:33:56.441Z,40.77
2022-10-05T18:36:40.208Z,40.76
2022-10-05T18:39:15.232Z,40.75
2022-10-05T18:42:07.458Z,40.80
2022-10-05T18:44:44.211Z,40.74
2022-10-05T18:47:29.630Z,40.65
2022-10-05T18:49:56.239Z,40.64
2022-10-05T18:52:49.485Z,40.54
2022-10-05T18:55:18.833Z,40.45
2022-10-05T18:58:03.465Z,40.45
2022-10-05T19:00:51.745Z,40.33
2022-10-05T19:03:40.286Z,40.32
2022-10-05T19:06:33.157Z,40.45
2022-10-05T19:09:02.742Z,40.33
2022-10-05T19:11:51.232Z,40.21
2022-10-05T19:14:42.120Z,40.32
2022-10-05T19:17:40.330Z,40.28
2022-10-05T19:20:30.149Z,40.23
2022-10-05T19:23:22.229Z,40.22
2022-10-05T19:25:53.078Z,40.20
2022-10-05T19:28:29.028Z,40.18
2022-10-05T19:31:26.985Z,40.17
2022-10-05T19:34:16.744Z,40.22
2022-10-05T19:37:01.952Z,40.16
2022-10-05T19:39:48.249Z,40.18
2022-10-05T19:42:20.726Z,40.17
2022-10-05T19:45:13.419Z,40.14
2022-10-05T19:47:52.478Z,40.18
2022-10-05T19:50:29.116Z,40.14
2022-10-05T19:53:04.121Z,40.09
2022-10-05T19:55:44.429Z,40.11
2022-10-05T19:58:22.682Z,40.11
2022-10-05T20:01:07.938Z,40.11
2022-10-05T20:03:36.721Z,40.07
2022-10-05T20:06:04.750Z,40.08
2022-10-05T20:08:44.920Z,40.12
2022-10-05T20:11:16.176Z,40.16
2022-10-05T20:13:55.025Z,40.12
2022-10-05T20:16:40.349Z,40.18
2022-10-05T20:19:45.588Z,40.27
2022-10-05T20:22:30.659Z,40.30
2022-10-05T20:25:00.203Z,40.42
2022-10-05T20:27:42.069Z,40.42
2022-10-05T20:30:13.156Z,40.55
2022-10-05T20:32:39.867Z,40.47
2022-10-05T20:35:09.394Z,40.53
2022-10-05T20:37:36.878Z,40.60
2022-10-05T20:40:04.622Z,40.66
2022-10-05T20:42:31.316Z,40.71
2022-10-05T20:44:58.094Z,40.75
2022-10-05T20:47:25.187Z,40.80
2022-10-05T20:49:53.389Z,40.89
2022-10-05T20:52:20.150Z,40.90
2022-10-05T20:54:53.839Z,40.99
2022-10-05T20:57:24.227Z,41.01
2022-10-05T20:59:51.511Z,41.07
2022-10-05T21:02:21.212Z,41.13
2022-10-05T21:04:48.012Z,41.19
2022-10-05T21:07:16.199Z,41.25
2022-10-05T21:09:43.836Z,41.30
2022-10-05T21:12:10.854Z,41.34
2022-10-05T21:14:37.959Z,41.41
2022-10-05T21:17:07.522Z,41.48
2022-10-05T21:19:38.356Z,41.51
2022-10-05T21:22:08.965Z,41.55
2022-10-05T21:24:36.561Z,41.60
2022-10-05T21:27:03.533Z,41.63
2022-10-05T21:29:30.112Z,41.65
2022-10-05T21:31:56.876Z,41.71
2022-10-05T21:34:23.524Z,41.76
2022-10-05T21:36:50.139Z,41.74
2022-10-05T21:39:16.940Z,41.80
2022-10-05T21:41:43.601Z,41.85
2022-10-05T21:44:10.136Z,41.87
2022-10-05T21:46:36.845Z,41.95
2022-10-05T21:49:03.407Z,41.96
2022-10-05T21:51:29.972Z,42.09
2022-10-05T21:54:03.630Z,42.19
2022-10-05T21:56:35.018Z,42.13
2022-10-05T21:59:03.150Z,42.18
2022-10-05T22:01:29.936Z,42.17
2022-10-05T22:03:56.976Z,42.28
2022-10-05T22:06:23.554Z,42.33
2022-10-05T22:08:50.111Z,42.46
2022-10-05T22:11:17.658Z,42.60
2022-10-05T22:13:46.851Z,42.72
2022-10-05T22:16:13.882Z,42.58
2022-10-05T22:18:40.571Z,42.55
2022-10-05T22:21:07.670Z,42.64
2022-10-05T22:23:37.766Z,42.71
2022-10-05T22:26:04.358Z,42.86
2022-10-05T22:28:31.962Z,43.00
2022-10-05T22:30:59.950Z,42.84
2022-10-05T22:33:27.161Z,43.15
2022-10-05T22:35:58.180Z,43.21
2022-10-05T22:38:25.177Z,43.28
2022-10-05T22:40:51.908Z,43.38
2022-10-05T22:43:18.623Z,43.41
2022-10-05T22:45:45.242Z,43.30
2022-10-05T22:48:12.202Z,43.51
2022-10-05T22:50:38.765Z,43.42
2022-10-05T22:53:05.359Z,43.47
2022-10-05T22:55:32.040Z,43.51
2022-10-05T22:57:58.608Z,43.49
2022-10-05T23:00:53.484Z,43.48
2022-10-05T23:03:15.823Z,43.46
2022-10-05T23:05:44.761Z,43.48
2022-10-05T23:08:11.316Z,43.55
2022-10-05T23:10:37.898Z,43.51
2022-10-05T23:13:04.982Z,43.56
2022-10-05T23:15:31.540Z,43.46
2022-10-05T23:17:58.308Z,43.53
2022-10-05T23:20:24.894Z,43.50
2022-10-05T23:22:51.621Z,43.53
2022-10-05T23:25:18.599Z,43.50
2022-10-05T23:27:45.175Z,43.64
2022-10-05T23:30:12.205Z,43.51
2022-10-05T23:32:42.855Z,43.56
2022-10-05T23:35:10.603Z,43.67
2022-10-05T23:37:46.324Z,43.63
2022-10-05T23:40:13.449Z,43.62
2022-10-05T23:42:40.548Z,43.57
2022-10-05T23:45:11.051Z,43.62
2022-10-05T23:47:40.273Z,43.59
2022-10-05T23:50:07.833Z,43.46
2022-10-05T23:52:35.065Z,43.59
2022-10-05T23:55:02.608Z,43.61
2022-10-05T23:57:31.544Z,43.56
2022-10-05T23:59:58.208Z,43.57
